aviador You're here:

YTRE Decoded Metar

TAREE AIRPORT in _UNIDENTIFIED
Report Time2018-01-17 05:00:00
UTC Time2018-01-17 05:16:46
Flight Rules unknown UNKNOWN
Wind190° at 11 kt
W.Decomp.*RWY 22: 8.2 kt HW 7.4 kt LCW
W.Rank190° ranks 27
Current wind is above 190° avg. (6.9)
VisibilityN/A
Phenomena:N/A
Clouds:N/A
Expected CloudBase > 6,000 ft AGL from Temp-Dew spread
CeilingNone
Temp26°C (ISA +11)
Dew Point11°C (39% RH)
AAT22.4°C
QNH1016 hPa
Density Alt1,398 ft
Elevation39 ft
Report Wrong Elevation
Raw Report
YTRE 170500Z AUTO 19011KT //// // NCD 26/11 Q1016=

Extra information for YTRE:More info

Metar Taf Metar & Taf Last 4 Metars F.Rules Stats Wind Profile Meteogram Temp Stats Airport Information Weather charts Add Link Nearby VenuesMetar ALERT Operation Metar Decoded Social comments